sensor_id;sensor_type;location;lat;lon;timestamp;P1;durP1;ratioP1;P2;durP2;ratioP2
71496;SDS011;59317;53.218;5.730;2023-05-10T00:01:32;8.45;;;4.10;;
71496;SDS011;59317;53.218;5.730;2023-05-10T00:03:58;7.20;;;4.25;;
71496;SDS011;59317;53.218;5.730;2023-05-10T00:06:24;9.23;;;5.70;;
71496;SDS011;59317;53.218;5.730;2023-05-10T00:08:50;10.18;;;6.18;;
71496;SDS011;59317;53.218;5.730;2023-05-10T00:11:16;12.40;;;7.73;;
71496;SDS011;59317;53.218;5.730;2023-05-10T00:13:42;11.73;;;7.37;;
71496;SDS011;59317;53.218;5.730;2023-05-10T00:16:08;14.10;;;7.90;;
71496;SDS011;59317;53.218;5.730;2023-05-10T00:18:34;12.50;;;7.40;;
71496;SDS011;59317;53.218;5.730;2023-05-10T00:21:00;12.17;;;6.77;;
71496;SDS011;59317;53.218;5.730;2023-05-10T00:23:26;11.27;;;6.97;;
71496;SDS011;59317;53.218;5.730;2023-05-10T00:25:52;11.48;;;6.45;;
71496;SDS011;59317;53.218;5.730;2023-05-10T00:28:18;9.68;;;5.70;;
71496;SDS011;59317;53.218;5.730;2023-05-10T00:30:44;9.05;;;4.57;;
71496;SDS011;59317;53.218;5.730;2023-05-10T00:33:10;8.90;;;5.22;;
71496;SDS011;59317;53.218;5.730;2023-05-10T00:35:36;10.13;;;5.40;;
71496;SDS011;59317;53.218;5.730;2023-05-10T00:38:02;9.35;;;5.40;;
71496;SDS011;59317;53.218;5.730;2023-05-10T00:40:28;12.18;;;7.20;;
71496;SDS011;59317;53.218;5.730;2023-05-10T00:42:55;19.98;;;9.20;;
71496;SDS011;59317;53.218;5.730;2023-05-10T00:45:21;19.30;;;10.40;;
71496;SDS011;59317;53.218;5.730;2023-05-10T00:47:47;33.23;;;14.67;;
71496;SDS011;59317;53.218;5.730;2023-05-10T00:50:14;39.70;;;13.43;;
71496;SDS011;59317;53.218;5.730;2023-05-10T00:52:40;40.05;;;12.85;;
71496;SDS011;59317;53.218;5.730;2023-05-10T00:55:06;36.95;;;11.95;;
71496;SDS011;59317;53.218;5.730;2023-05-10T00:57:32;38.17;;;11.02;;
71496;SDS011;59317;53.218;5.730;2023-05-10T00:59:59;34.92;;;11.18;;
71496;SDS011;59317;53.218;5.730;2023-05-10T01:02:25;27.50;;;11.10;;
71496;SDS011;59317;53.218;5.730;2023-05-10T01:04:51;36.30;;;12.50;;
71496;SDS011;59317;53.218;5.730;2023-05-10T01:07:17;33.97;;;11.25;;
71496;SDS011;59317;53.218;5.730;2023-05-10T01:09:43;44.92;;;9.02;;
71496;SDS011;59317;53.218;5.730;2023-05-10T01:12:09;33.67;;;8.23;;
71496;SDS011;59317;53.218;5.730;2023-05-10T01:14:35;34.75;;;8.88;;
71496;SDS011;59317;53.218;5.730;2023-05-10T01:17:01;44.53;;;9.15;;
71496;SDS011;59317;53.218;5.730;2023-05-10T01:19:28;34.88;;;10.00;;
71496;SDS011;59317;53.218;5.730;2023-05-10T01:21:59;33.30;;;9.68;;
71496;SDS011;59317;53.218;5.730;2023-05-10T01:27:14;19.33;;;9.40;;
71496;SDS011;59317;53.218;5.730;2023-05-10T01:34:35;18.45;;;10.88;;
71496;SDS011;59317;53.218;5.730;2023-05-10T01:37:07;17.35;;;9.45;;
71496;SDS011;59317;53.218;5.730;2023-05-10T01:42:10;14.15;;;7.90;;
71496;SDS011;59317;53.218;5.730;2023-05-10T01:44:41;13.68;;;8.30;;
71496;SDS011;59317;53.218;5.730;2023-05-10T01:49:37;13.68;;;8.70;;
71496;SDS011;59317;53.218;5.730;2023-05-10T01:52:09;15.43;;;9.47;;
71496;SDS011;59317;53.218;5.730;2023-05-10T01:54:37;11.85;;;6.50;;
71496;SDS011;59317;53.218;5.730;2023-05-10T01:57:05;9.10;;;5.13;;
71496;SDS011;59317;53.218;5.730;2023-05-10T01:59:34;8.52;;;5.60;;
71496;SDS011;59317;53.218;5.730;2023-05-10T02:02:06;9.90;;;5.93;;
71496;SDS011;59317;53.218;5.730;2023-05-10T02:04:33;9.85;;;6.00;;
71496;SDS011;59317;53.218;5.730;2023-05-10T02:07:01;9.27;;;5.63;;
71496;SDS011;59317;53.218;5.730;2023-05-10T02:09:27;8.10;;;4.80;;
71496;SDS011;59317;53.218;5.730;2023-05-10T02:11:54;7.67;;;4.03;;
71496;SDS011;59317;53.218;5.730;2023-05-10T02:14:21;5.30;;;2.63;;
71496;SDS011;59317;53.218;5.730;2023-05-10T02:16:49;5.90;;;2.13;;
71496;SDS011;59317;53.218;5.730;2023-05-10T02:19:16;4.80;;;1.77;;
71496;SDS011;59317;53.218;5.730;2023-05-10T02:21:43;3.53;;;1.30;;
71496;SDS011;59317;53.218;5.730;2023-05-10T02:24:09;3.80;;;1.50;;
71496;SDS011;59317;53.218;5.730;2023-05-10T02:26:36;3.40;;;1.30;;
71496;SDS011;59317;53.218;5.730;2023-05-10T02:29:03;2.83;;;1.10;;
71496;SDS011;59317;53.218;5.730;2023-05-10T02:31:32;3.33;;;1.17;;
71496;SDS011;59317;53.218;5.730;2023-05-10T02:33:58;2.90;;;1.17;;
71496;SDS011;59317;53.218;5.730;2023-05-10T02:36:26;2.50;;;0.95;;
71496;SDS011;59317;53.218;5.730;2023-05-10T02:38:52;3.03;;;1.20;;
71496;SDS011;59317;53.218;5.730;2023-05-10T02:41:19;3.70;;;1.00;;
71496;SDS011;59317;53.218;5.730;2023-05-10T02:43:47;2.83;;;1.20;;
71496;SDS011;59317;53.218;5.730;2023-05-10T02:46:15;2.58;;;1.00;;
71496;SDS011;59317;53.218;5.730;2023-05-10T02:48:41;2.22;;;0.90;;
71496;SDS011;59317;53.218;5.730;2023-05-10T02:51:07;2.65;;;1.00;;
71496;SDS011;59317;53.218;5.730;2023-05-10T02:53:35;3.07;;;1.00;;
71496;SDS011;59317;53.218;5.730;2023-05-10T02:56:04;1.83;;;0.70;;
71496;SDS011;59317;53.218;5.730;2023-05-10T02:58:32;2.55;;;1.00;;
71496;SDS011;59317;53.218;5.730;2023-05-10T03:00:59;2.22;;;0.90;;
71496;SDS011;59317;53.218;5.730;2023-05-10T03:03:25;2.75;;;1.00;;
71496;SDS011;59317;53.218;5.730;2023-05-10T03:05:51;2.72;;;0.93;;
71496;SDS011;59317;53.218;5.730;2023-05-10T03:08:20;2.30;;;0.75;;
71496;SDS011;59317;53.218;5.730;2023-05-10T03:11:01;2.40;;;0.80;;
71496;SDS011;59317;53.218;5.730;2023-05-10T03:13:35;2.40;;;1.00;;
71496;SDS011;59317;53.218;5.730;2023-05-10T03:18:28;3.42;;;1.30;;
71496;SDS011;59317;53.218;5.730;2023-05-10T03:20:59;3.72;;;1.45;;
71496;SDS011;59317;53.218;5.730;2023-05-10T03:23:27;3.60;;;1.50;;
71496;SDS011;59317;53.218;5.730;2023-05-10T03:25:53;3.83;;;1.35;;
71496;SDS011;59317;53.218;5.730;2023-05-10T03:28:20;3.17;;;1.45;;
71496;SDS011;59317;53.218;5.730;2023-05-10T03:30:47;4.15;;;1.80;;
71496;SDS011;59317;53.218;5.730;2023-05-10T03:33:13;3.50;;;1.30;;
71496;SDS011;59317;53.218;5.730;2023-05-10T03:35:39;3.47;;;1.48;;
71496;SDS011;59317;53.218;5.730;2023-05-10T03:38:05;3.00;;;1.00;;
71496;SDS011;59317;53.218;5.730;2023-05-10T03:40:31;2.23;;;0.80;;
71496;SDS011;59317;53.218;5.730;2023-05-10T03:42:58;1.90;;;0.60;;
71496;SDS011;59317;53.218;5.730;2023-05-10T03:45:24;3.00;;;0.80;;
71496;SDS011;59317;53.218;5.730;2023-05-10T03:47:50;2.33;;;0.80;;
71496;SDS011;59317;53.218;5.730;2023-05-10T03:50:16;2.47;;;0.90;;
71496;SDS011;59317;53.218;5.730;2023-05-10T03:52:43;2.20;;;0.80;;
71496;SDS011;59317;53.218;5.730;2023-05-10T03:55:09;2.88;;;1.08;;
71496;SDS011;59317;53.218;5.730;2023-05-10T03:57:35;3.00;;;1.20;;
71496;SDS011;59317;53.218;5.730;2023-05-10T04:00:02;3.33;;;1.20;;
71496;SDS011;59317;53.218;5.730;2023-05-10T04:02:28;3.55;;;1.30;;
71496;SDS011;59317;53.218;5.730;2023-05-10T04:04:55;3.50;;;1.40;;
71496;SDS011;59317;53.218;5.730;2023-05-10T04:07:21;3.40;;;1.40;;
71496;SDS011;59317;53.218;5.730;2023-05-10T04:09:47;3.88;;;1.42;;
71496;SDS011;59317;53.218;5.730;2023-05-10T04:12:13;4.30;;;1.60;;
71496;SDS011;59317;53.218;5.730;2023-05-10T04:14:39;4.43;;;1.90;;
71496;SDS011;59317;53.218;5.730;2023-05-10T04:17:05;4.20;;;1.73;;
71496;SDS011;59317;53.218;5.730;2023-05-10T04:19:31;4.40;;;1.80;;
71496;SDS011;59317;53.218;5.730;2023-05-10T04:21:58;6.00;;;2.00;;
71496;SDS011;59317;53.218;5.730;2023-05-10T04:24:24;5.07;;;2.35;;
71496;SDS011;59317;53.218;5.730;2023-05-10T04:26:51;6.95;;;2.72;;
71496;SDS011;59317;53.218;5.730;2023-05-10T04:29:17;6.87;;;3.40;;
71496;SDS011;59317;53.218;5.730;2023-05-10T04:31:43;8.23;;;3.80;;
71496;SDS011;59317;53.218;5.730;2023-05-10T04:34:09;7.93;;;4.57;;
71496;SDS011;59317;53.218;5.730;2023-05-10T04:36:35;7.93;;;4.82;;
71496;SDS011;59317;53.218;5.730;2023-05-10T04:39:02;8.15;;;5.30;;
71496;SDS011;59317;53.218;5.730;2023-05-10T04:41:28;9.97;;;6.23;;
71496;SDS011;59317;53.218;5.730;2023-05-10T04:43:55;9.98;;;5.38;;
71496;SDS011;59317;53.218;5.730;2023-05-10T04:46:26;11.30;;;6.07;;
71496;SDS011;59317;53.218;5.730;2023-05-10T04:48:52;8.75;;;5.63;;
71496;SDS011;59317;53.218;5.730;2023-05-10T04:51:18;9.73;;;5.55;;
71496;SDS011;59317;53.218;5.730;2023-05-10T04:53:44;10.82;;;5.38;;
71496;SDS011;59317;53.218;5.730;2023-05-10T04:56:10;9.30;;;5.10;;
71496;SDS011;59317;53.218;5.730;2023-05-10T04:58:36;8.75;;;4.05;;
71496;SDS011;59317;53.218;5.730;2023-05-10T05:01:05;8.13;;;4.10;;
71496;SDS011;59317;53.218;5.730;2023-05-10T05:03:32;8.13;;;3.80;;
71496;SDS011;59317;53.218;5.730;2023-05-10T05:05:58;7.22;;;3.53;;
71496;SDS011;59317;53.218;5.730;2023-05-10T05:08:24;7.45;;;3.30;;
71496;SDS011;59317;53.218;5.730;2023-05-10T05:10:50;7.03;;;3.60;;
71496;SDS011;59317;53.218;5.730;2023-05-10T05:13:16;6.93;;;3.25;;
71496;SDS011;59317;53.218;5.730;2023-05-10T05:15:43;6.75;;;3.30;;
71496;SDS011;59317;53.218;5.730;2023-05-10T05:18:09;6.50;;;3.05;;
71496;SDS011;59317;53.218;5.730;2023-05-10T05:20:35;6.70;;;3.08;;
71496;SDS011;59317;53.218;5.730;2023-05-10T05:23:01;7.15;;;3.13;;
71496;SDS011;59317;53.218;5.730;2023-05-10T05:25:27;6.05;;;2.70;;
71496;SDS011;59317;53.218;5.730;2023-05-10T05:27:53;5.90;;;2.40;;
71496;SDS011;59317;53.218;5.730;2023-05-10T05:30:19;6.78;;;2.50;;
71496;SDS011;59317;53.218;5.730;2023-05-10T05:32:45;5.28;;;1.80;;
71496;SDS011;59317;53.218;5.730;2023-05-10T05:35:12;4.60;;;1.95;;
71496;SDS011;59317;53.218;5.730;2023-05-10T05:37:38;5.25;;;1.92;;
71496;SDS011;59317;53.218;5.730;2023-05-10T05:40:05;4.40;;;1.80;;
71496;SDS011;59317;53.218;5.730;2023-05-10T05:42:31;4.70;;;1.60;;
71496;SDS011;59317;53.218;5.730;2023-05-10T05:44:57;5.50;;;1.70;;
71496;SDS011;59317;53.218;5.730;2023-05-10T05:47:24;3.65;;;1.30;;
71496;SDS011;59317;53.218;5.730;2023-05-10T05:49:50;3.50;;;1.17;;
71496;SDS011;59317;53.218;5.730;2023-05-10T05:52:16;3.55;;;1.25;;
71496;SDS011;59317;53.218;5.730;2023-05-10T05:54:42;3.60;;;1.17;;
71496;SDS011;59317;53.218;5.730;2023-05-10T05:57:08;4.20;;;1.20;;
71496;SDS011;59317;53.218;5.730;2023-05-10T05:59:34;3.50;;;1.10;;
71496;SDS011;59317;53.218;5.730;2023-05-10T06:02:00;3.57;;;1.10;;
71496;SDS011;59317;53.218;5.730;2023-05-10T06:04:26;3.67;;;1.10;;
71496;SDS011;59317;53.218;5.730;2023-05-10T06:06:52;4.80;;;1.80;;
71496;SDS011;59317;53.218;5.730;2023-05-10T06:09:18;5.40;;;2.10;;
71496;SDS011;59317;53.218;5.730;2023-05-10T06:11:44;5.13;;;1.92;;
71496;SDS011;59317;53.218;5.730;2023-05-10T06:14:11;4.85;;;1.80;;
71496;SDS011;59317;53.218;5.730;2023-05-10T06:16:37;5.80;;;2.00;;
71496;SDS011;59317;53.218;5.730;2023-05-10T06:19:03;6.22;;;2.00;;
71496;SDS011;59317;53.218;5.730;2023-05-10T06:21:29;5.82;;;2.00;;
71496;SDS011;59317;53.218;5.730;2023-05-10T06:23:55;7.18;;;2.47;;
71496;SDS011;59317;53.218;5.730;2023-05-10T06:26:21;5.70;;;2.13;;
71496;SDS011;59317;53.218;5.730;2023-05-10T06:28:47;6.68;;;2.40;;
71496;SDS011;59317;53.218;5.730;2023-05-10T06:31:13;6.97;;;2.00;;
71496;SDS011;59317;53.218;5.730;2023-05-10T06:33:39;4.90;;;1.80;;
71496;SDS011;59317;53.218;5.730;2023-05-10T06:36:05;5.93;;;1.70;;
71496;SDS011;59317;53.218;5.730;2023-05-10T06:38:31;5.13;;;1.70;;
71496;SDS011;59317;53.218;5.730;2023-05-10T06:40:58;5.57;;;1.70;;
71496;SDS011;59317;53.218;5.730;2023-05-10T06:43:24;6.65;;;2.58;;
71496;SDS011;59317;53.218;5.730;2023-05-10T06:45:51;8.60;;;3.33;;
71496;SDS011;59317;53.218;5.730;2023-05-10T06:48:17;7.70;;;3.30;;
71496;SDS011;59317;53.218;5.730;2023-05-10T06:50:43;8.90;;;3.45;;
71496;SDS011;59317;53.218;5.730;2023-05-10T06:53:09;9.27;;;3.30;;
71496;SDS011;59317;53.218;5.730;2023-05-10T06:55:37;7.90;;;3.10;;
71496;SDS011;59317;53.218;5.730;2023-05-10T06:58:02;8.20;;;3.13;;
71496;SDS011;59317;53.218;5.730;2023-05-10T07:00:29;8.18;;;2.90;;
71496;SDS011;59317;53.218;5.730;2023-05-10T07:02:55;7.03;;;2.80;;
71496;SDS011;59317;53.218;5.730;2023-05-10T07:05:21;7.70;;;3.10;;
71496;SDS011;59317;53.218;5.730;2023-05-10T07:07:47;7.32;;;2.90;;
71496;SDS011;59317;53.218;5.730;2023-05-10T07:10:13;6.75;;;2.95;;
71496;SDS011;59317;53.218;5.730;2023-05-10T07:12:39;6.50;;;2.67;;
71496;SDS011;59317;53.218;5.730;2023-05-10T07:15:05;7.25;;;2.83;;
71496;SDS011;59317;53.218;5.730;2023-05-10T07:17:31;7.68;;;2.90;;
71496;SDS011;59317;53.218;5.730;2023-05-10T07:19:58;6.93;;;3.00;;
71496;SDS011;59317;53.218;5.730;2023-05-10T07:22:24;6.88;;;3.03;;
71496;SDS011;59317;53.218;5.730;2023-05-10T07:24:50;8.52;;;3.65;;
71496;SDS011;59317;53.218;5.730;2023-05-10T07:27:16;7.53;;;3.40;;
71496;SDS011;59317;53.218;5.730;2023-05-10T07:29:42;8.57;;;3.57;;
71496;SDS011;59317;53.218;5.730;2023-05-10T07:32:08;7.80;;;3.33;;
71496;SDS011;59317;53.218;5.730;2023-05-10T07:34:34;7.57;;;3.42;;
71496;SDS011;59317;53.218;5.730;2023-05-10T07:37:00;7.93;;;3.30;;
71496;SDS011;59317;53.218;5.730;2023-05-10T07:39:27;7.40;;;3.73;;
71496;SDS011;59317;53.218;5.730;2023-05-10T07:41:53;8.80;;;4.00;;
71496;SDS011;59317;53.218;5.730;2023-05-10T07:44:19;8.48;;;4.30;;
71496;SDS011;59317;53.218;5.730;2023-05-10T07:46:45;8.15;;;3.70;;
71496;SDS011;59317;53.218;5.730;2023-05-10T07:49:11;9.63;;;3.70;;
71496;SDS011;59317;53.218;5.730;2023-05-10T07:51:37;7.38;;;3.40;;
71496;SDS011;59317;53.218;5.730;2023-05-10T07:54:03;7.65;;;3.30;;
71496;SDS011;59317;53.218;5.730;2023-05-10T07:56:30;7.93;;;3.35;;
71496;SDS011;59317;53.218;5.730;2023-05-10T07:58:56;8.02;;;3.70;;
71496;SDS011;59317;53.218;5.730;2023-05-10T08:01:22;7.72;;;3.30;;
71496;SDS011;59317;53.218;5.730;2023-05-10T08:03:48;7.72;;;3.30;;
71496;SDS011;59317;53.218;5.730;2023-05-10T08:06:16;7.88;;;3.33;;
71496;SDS011;59317;53.218;5.730;2023-05-10T08:08:43;7.55;;;3.20;;
71496;SDS011;59317;53.218;5.730;2023-05-10T08:11:10;7.38;;;2.97;;
71496;SDS011;59317;53.218;5.730;2023-05-10T08:13:36;7.13;;;3.00;;
71496;SDS011;59317;53.218;5.730;2023-05-10T08:16:02;7.22;;;3.30;;
71496;SDS011;59317;53.218;5.730;2023-05-10T08:18:28;8.38;;;3.78;;
71496;SDS011;59317;53.218;5.730;2023-05-10T08:20:54;8.82;;;3.90;;
71496;SDS011;59317;53.218;5.730;2023-05-10T08:23:20;8.60;;;4.05;;
71496;SDS011;59317;53.218;5.730;2023-05-10T08:25:46;9.02;;;3.83;;
71496;SDS011;59317;53.218;5.730;2023-05-10T08:28:12;8.60;;;3.70;;
71496;SDS011;59317;53.218;5.730;2023-05-10T08:30:38;8.02;;;3.58;;
71496;SDS011;59317;53.218;5.730;2023-05-10T08:33:04;10.02;;;4.32;;
71496;SDS011;59317;53.218;5.730;2023-05-10T08:35:30;11.05;;;5.00;;
71496;SDS011;59317;53.218;5.730;2023-05-10T08:37:58;10.48;;;5.30;;
71496;SDS011;59317;53.218;5.730;2023-05-10T08:40:24;10.43;;;4.93;;
71496;SDS011;59317;53.218;5.730;2023-05-10T08:43:09;10.43;;;5.03;;
71496;SDS011;59317;53.218;5.730;2023-05-10T08:45:39;10.43;;;5.13;;
71496;SDS011;59317;53.218;5.730;2023-05-10T08:48:06;10.57;;;5.30;;
71496;SDS011;59317;53.218;5.730;2023-05-10T08:50:34;10.02;;;4.57;;
71496;SDS011;59317;53.218;5.730;2023-05-10T08:53:01;10.50;;;4.88;;
71496;SDS011;59317;53.218;5.730;2023-05-10T08:55:29;13.23;;;5.60;;
71496;SDS011;59317;53.218;5.730;2023-05-10T08:57:55;10.18;;;4.90;;
71496;SDS011;59317;53.218;5.730;2023-05-10T09:00:21;11.63;;;5.38;;
71496;SDS011;59317;53.218;5.730;2023-05-10T09:02:49;9.95;;;5.35;;
71496;SDS011;59317;53.218;5.730;2023-05-10T09:05:21;9.88;;;4.40;;
71496;SDS011;59317;53.218;5.730;2023-05-10T09:07:47;12.13;;;4.80;;
71496;SDS011;59317;53.218;5.730;2023-05-10T09:10:14;7.55;;;3.65;;
71496;SDS011;59317;53.218;5.730;2023-05-10T09:12:40;7.93;;;3.77;;
71496;SDS011;59317;53.218;5.730;2023-05-10T09:15:08;8.27;;;4.07;;
71496;SDS011;59317;53.218;5.730;2023-05-10T09:17:35;9.07;;;4.10;;
71496;SDS011;59317;53.218;5.730;2023-05-10T09:20:02;8.17;;;3.90;;
71496;SDS011;59317;53.218;5.730;2023-05-10T09:22:29;9.23;;;4.30;;
71496;SDS011;59317;53.218;5.730;2023-05-10T09:25:05;8.93;;;4.18;;
71496;SDS011;59317;53.218;5.730;2023-05-10T09:27:32;10.27;;;4.57;;
71496;SDS011;59317;53.218;5.730;2023-05-10T09:29:58;8.70;;;4.20;;
71496;SDS011;59317;53.218;5.730;2023-05-10T09:35:21;8.20;;;3.95;;
71496;SDS011;59317;53.218;5.730;2023-05-10T09:37:48;9.20;;;4.15;;
71496;SDS011;59317;53.218;5.730;2023-05-10T09:40:15;8.93;;;4.40;;
71496;SDS011;59317;53.218;5.730;2023-05-10T09:42:42;10.57;;;4.95;;
71496;SDS011;59317;53.218;5.730;2023-05-10T09:45:09;9.18;;;4.55;;
71496;SDS011;59317;53.218;5.730;2023-05-10T09:47:35;9.52;;;4.57;;
71496;SDS011;59317;53.218;5.730;2023-05-10T09:50:02;9.57;;;4.57;;
71496;SDS011;59317;53.218;5.730;2023-05-10T09:52:29;10.52;;;5.10;;
71496;SDS011;59317;53.218;5.730;2023-05-10T09:54:55;10.95;;;5.00;;
71496;SDS011;59317;53.218;5.730;2023-05-10T09:57:22;10.43;;;5.32;;
71496;SDS011;59317;53.218;5.730;2023-05-10T09:59:49;10.20;;;5.50;;
71496;SDS011;59317;53.218;5.730;2023-05-10T10:02:15;10.73;;;5.63;;
71496;SDS011;59317;53.218;5.730;2023-05-10T10:04:42;11.48;;;5.53;;
71496;SDS011;59317;53.218;5.730;2023-05-10T10:07:08;10.70;;;5.90;;
71496;SDS011;59317;53.218;5.730;2023-05-10T10:09:34;10.07;;;5.22;;
71496;SDS011;59317;53.218;5.730;2023-05-10T10:12:01;13.27;;;5.85;;
71496;SDS011;59317;53.218;5.730;2023-05-10T10:14:27;10.03;;;5.33;;
71496;SDS011;59317;53.218;5.730;2023-05-10T10:16:54;10.05;;;5.00;;
71496;SDS011;59317;53.218;5.730;2023-05-10T10:19:20;10.15;;;5.00;;
71496;SDS011;59317;53.218;5.730;2023-05-10T10:21:50;10.27;;;4.70;;
71496;SDS011;59317;53.218;5.730;2023-05-10T10:24:16;10.13;;;5.45;;
71496;SDS011;59317;53.218;5.730;2023-05-10T10:26:42;9.45;;;5.30;;
71496;SDS011;59317;53.218;5.730;2023-05-10T10:31:41;9.33;;;5.23;;
71496;SDS011;59317;53.218;5.730;2023-05-10T10:34:11;9.70;;;4.97;;
71496;SDS011;59317;53.218;5.730;2023-05-10T10:36:44;9.30;;;5.05;;
71496;SDS011;59317;53.218;5.730;2023-05-10T10:39:11;8.38;;;4.60;;
71496;SDS011;59317;53.218;5.730;2023-05-10T10:41:38;8.55;;;4.43;;
71496;SDS011;59317;53.218;5.730;2023-05-10T10:47:01;8.38;;;4.50;;
71496;SDS011;59317;53.218;5.730;2023-05-10T10:49:27;8.55;;;4.70;;
71496;SDS011;59317;53.218;5.730;2023-05-10T10:54:38;7.83;;;4.40;;
71496;SDS011;59317;53.218;5.730;2023-05-10T10:57:14;8.53;;;4.47;;
71496;SDS011;59317;53.218;5.730;2023-05-10T10:59:43;7.68;;;3.90;;
71496;SDS011;59317;53.218;5.730;2023-05-10T11:02:10;8.10;;;4.47;;
71496;SDS011;59317;53.218;5.730;2023-05-10T11:04:42;9.45;;;4.95;;
71496;SDS011;59317;53.218;5.730;2023-05-10T11:07:17;9.05;;;5.45;;
71496;SDS011;59317;53.218;5.730;2023-05-10T11:09:43;7.82;;;4.60;;
71496;SDS011;59317;53.218;5.730;2023-05-10T11:12:10;8.80;;;4.78;;
71496;SDS011;59317;53.218;5.730;2023-05-10T11:14:36;8.48;;;4.97;;
71496;SDS011;59317;53.218;5.730;2023-05-10T11:17:02;8.98;;;5.35;;
71496;SDS011;59317;53.218;5.730;2023-05-10T11:20:06;9.95;;;5.57;;
71496;SDS011;59317;53.218;5.730;2023-05-10T11:22:48;8.63;;;5.07;;
71496;SDS011;59317;53.218;5.730;2023-05-10T11:25:16;8.80;;;5.60;;
71496;SDS011;59317;53.218;5.730;2023-05-10T11:27:41;10.57;;;5.80;;
71496;SDS011;59317;53.218;5.730;2023-05-10T11:30:09;10.07;;;6.07;;
71496;SDS011;59317;53.218;5.730;2023-05-10T11:32:37;11.03;;;5.90;;
71496;SDS011;59317;53.218;5.730;2023-05-10T11:35:06;9.95;;;5.43;;
71496;SDS011;59317;53.218;5.730;2023-05-10T11:37:32;9.23;;;5.78;;
71496;SDS011;59317;53.218;5.730;2023-05-10T11:39:59;11.30;;;6.57;;
71496;SDS011;59317;53.218;5.730;2023-05-10T11:42:25;10.00;;;6.13;;
71496;SDS011;59317;53.218;5.730;2023-05-10T11:44:51;10.70;;;6.70;;
71496;SDS011;59317;53.218;5.730;2023-05-10T11:47:17;11.97;;;7.00;;
71496;SDS011;59317;53.218;5.730;2023-05-10T11:49:43;12.43;;;7.30;;
71496;SDS011;59317;53.218;5.730;2023-05-10T11:52:09;11.05;;;6.40;;
71496;SDS011;59317;53.218;5.730;2023-05-10T11:54:51;11.18;;;6.68;;
71496;SDS011;59317;53.218;5.730;2023-05-10T11:57:18;12.50;;;7.65;;
71496;SDS011;59317;53.218;5.730;2023-05-10T11:59:45;12.07;;;6.90;;
71496;SDS011;59317;53.218;5.730;2023-05-10T12:02:13;11.90;;;7.82;;
71496;SDS011;59317;53.218;5.730;2023-05-10T12:04:40;11.60;;;6.60;;
71496;SDS011;59317;53.218;5.730;2023-05-10T12:07:06;13.33;;;6.60;;
71496;SDS011;59317;53.218;5.730;2023-05-10T12:09:32;13.03;;;7.50;;
71496;SDS011;59317;53.218;5.730;2023-05-10T12:11:58;12.37;;;7.33;;
71496;SDS011;59317;53.218;5.730;2023-05-10T12:14:24;13.13;;;7.70;;
71496;SDS011;59317;53.218;5.730;2023-05-10T12:16:50;12.20;;;7.63;;
71496;SDS011;59317;53.218;5.730;2023-05-10T12:19:19;11.75;;;6.50;;
71496;SDS011;59317;53.218;5.730;2023-05-10T12:21:48;10.40;;;6.17;;
71496;SDS011;59317;53.218;5.730;2023-05-10T12:24:14;12.30;;;6.93;;
71496;SDS011;59317;53.218;5.730;2023-05-10T12:26:45;10.85;;;7.05;;
71496;SDS011;59317;53.218;5.730;2023-05-10T12:29:14;12.18;;;6.97;;
71496;SDS011;59317;53.218;5.730;2023-05-10T12:31:54;11.73;;;6.53;;
71496;SDS011;59317;53.218;5.730;2023-05-10T12:34:29;10.05;;;6.20;;
71496;SDS011;59317;53.218;5.730;2023-05-10T12:36:55;9.85;;;5.88;;
71496;SDS011;59317;53.218;5.730;2023-05-10T12:39:21;10.63;;;6.15;;
71496;SDS011;59317;53.218;5.730;2023-05-10T12:41:47;10.60;;;6.30;;
71496;SDS011;59317;53.218;5.730;2023-05-10T12:44:14;10.88;;;6.53;;
71496;SDS011;59317;53.218;5.730;2023-05-10T12:46:40;11.60;;;7.10;;
71496;SDS011;59317;53.218;5.730;2023-05-10T12:49:06;11.67;;;6.90;;
71496;SDS011;59317;53.218;5.730;2023-05-10T12:51:32;13.87;;;6.70;;
71496;SDS011;59317;53.218;5.730;2023-05-10T12:53:58;12.25;;;6.75;;
71496;SDS011;59317;53.218;5.730;2023-05-10T12:56:24;14.82;;;8.55;;
71496;SDS011;59317;53.218;5.730;2023-05-10T12:58:50;14.65;;;8.27;;
71496;SDS011;59317;53.218;5.730;2023-05-10T13:01:16;13.43;;;7.53;;
71496;SDS011;59317;53.218;5.730;2023-05-10T13:03:42;16.65;;;9.07;;
71496;SDS011;59317;53.218;5.730;2023-05-10T13:06:08;14.98;;;9.13;;
71496;SDS011;59317;53.218;5.730;2023-05-10T13:08:34;16.08;;;9.40;;
71496;SDS011;59317;53.218;5.730;2023-05-10T13:11:00;13.35;;;8.35;;
71496;SDS011;59317;53.218;5.730;2023-05-10T13:13:26;13.43;;;8.10;;
71496;SDS011;59317;53.218;5.730;2023-05-10T13:15:52;12.60;;;7.50;;
71496;SDS011;59317;53.218;5.730;2023-05-10T13:18:18;11.77;;;7.40;;
71496;SDS011;59317;53.218;5.730;2023-05-10T13:20:44;10.68;;;6.68;;
71496;SDS011;59317;53.218;5.730;2023-05-10T13:23:10;8.80;;;5.18;;
71496;SDS011;59317;53.218;5.730;2023-05-10T13:25:37;10.82;;;6.10;;
71496;SDS011;59317;53.218;5.730;2023-05-10T13:28:04;10.20;;;6.47;;
71496;SDS011;59317;53.218;5.730;2023-05-10T13:30:30;9.75;;;6.40;;
71496;SDS011;59317;53.218;5.730;2023-05-10T13:32:55;8.82;;;5.97;;
71496;SDS011;59317;53.218;5.730;2023-05-10T13:35:21;8.57;;;5.85;;
71496;SDS011;59317;53.218;5.730;2023-05-10T13:37:47;9.18;;;6.43;;
71496;SDS011;59317;53.218;5.730;2023-05-10T13:40:13;9.13;;;5.72;;
71496;SDS011;59317;53.218;5.730;2023-05-10T13:42:40;8.20;;;5.18;;
71496;SDS011;59317;53.218;5.730;2023-05-10T13:45:06;7.40;;;5.00;;
71496;SDS011;59317;53.218;5.730;2023-05-10T13:47:32;7.88;;;4.85;;
71496;SDS011;59317;53.218;5.730;2023-05-10T13:49:58;6.93;;;4.43;;
71496;SDS011;59317;53.218;5.730;2023-05-10T13:52:25;7.63;;;5.18;;
71496;SDS011;59317;53.218;5.730;2023-05-10T13:54:51;7.55;;;5.07;;
71496;SDS011;59317;53.218;5.730;2023-05-10T13:57:19;7.00;;;4.70;;
71496;SDS011;59317;53.218;5.730;2023-05-10T13:59:45;7.50;;;4.82;;
71496;SDS011;59317;53.218;5.730;2023-05-10T14:02:12;7.77;;;5.23;;
71496;SDS011;59317;53.218;5.730;2023-05-10T14:04:38;7.55;;;4.68;;
71496;SDS011;59317;53.218;5.730;2023-05-10T14:07:04;8.13;;;4.72;;
71496;SDS011;59317;53.218;5.730;2023-05-10T14:09:30;7.78;;;5.63;;
71496;SDS011;59317;53.218;5.730;2023-05-10T14:11:56;8.05;;;5.30;;
71496;SDS011;59317;53.218;5.730;2023-05-10T14:14:22;6.85;;;4.72;;
71496;SDS011;59317;53.218;5.730;2023-05-10T14:16:48;7.77;;;5.50;;
71496;SDS011;59317;53.218;5.730;2023-05-10T14:19:14;7.15;;;4.28;;
71496;SDS011;59317;53.218;5.730;2023-05-10T14:21:40;7.63;;;4.85;;
71496;SDS011;59317;53.218;5.730;2023-05-10T14:24:06;7.88;;;5.53;;
71496;SDS011;59317;53.218;5.730;2023-05-10T14:26:32;8.20;;;5.30;;
71496;SDS011;59317;53.218;5.730;2023-05-10T14:28:59;9.33;;;5.30;;
71496;SDS011;59317;53.218;5.730;2023-05-10T14:31:25;7.47;;;4.88;;
71496;SDS011;59317;53.218;5.730;2023-05-10T14:33:52;7.13;;;4.68;;
71496;SDS011;59317;53.218;5.730;2023-05-10T14:36:18;7.55;;;5.20;;
71496;SDS011;59317;53.218;5.730;2023-05-10T14:38:44;7.88;;;5.45;;
71496;SDS011;59317;53.218;5.730;2023-05-10T14:41:10;7.55;;;5.18;;
71496;SDS011;59317;53.218;5.730;2023-05-10T14:43:39;7.90;;;4.70;;
71496;SDS011;59317;53.218;5.730;2023-05-10T14:46:06;6.68;;;4.35;;
71496;SDS011;59317;53.218;5.730;2023-05-10T14:48:32;7.47;;;4.90;;
71496;SDS011;59317;53.218;5.730;2023-05-10T14:50:58;7.60;;;5.20;;
71496;SDS011;59317;53.218;5.730;2023-05-10T14:53:24;8.13;;;5.73;;
71496;SDS011;59317;53.218;5.730;2023-05-10T14:55:50;8.73;;;5.37;;
71496;SDS011;59317;53.218;5.730;2023-05-10T14:58:16;8.48;;;5.70;;
71496;SDS011;59317;53.218;5.730;2023-05-10T15:00:45;9.23;;;5.78;;
71496;SDS011;59317;53.218;5.730;2023-05-10T15:03:32;8.80;;;5.82;;
71496;SDS011;59317;53.218;5.730;2023-05-10T15:06:00;8.60;;;5.60;;
71496;SDS011;59317;53.218;5.730;2023-05-10T15:08:26;9.73;;;6.20;;